Scroll down
FLIGHT INFORMATION
Seven Three Seven Two Aviation


At Arrival Gate

PHNL
 KPHX
DATE: 2020-10-19
GATE:  -
GATE DEPARTURE: 13:23
TAKEOFF: 13:36
DATE: 2020-10-19
GATE:  -
LANDING: 19:25
GATE ARRIVAL: 19:31
FLIGHT DATA
Crew: 
Speed: 
469 kts
Altitude: 
37,023 ft
Stage Length: 
2,531.4 nm
Block Time: 
6.1 hrs
Flight Time: 
5.8 hrs
Fuel Used: 
32,249 lb
Cleared Route: PHNL MKK BLUSH SETWE FITES FAPIS FOMAS FIZEL FLITY FOOTS FICKY JERKI BLH SCOLE SPINK SNRRA SWOON HYDRR GEELA PUNNT TEICH TESLE FALGO CAGOR JAMIL RW08
TRACK DATA
50,000 ft 1,000 kts
AIRCRAFT INFO AND CUMULATIVE STATS
Aircraft Type: 
B738BBJ2BW
Registration: 
SELCAL: 
CLEH
MSN/LN: 
40118 / 3369
Total Flights: 
12
Total Block Time: 
61.6 hrs
Total Flight Time: 
58.6 hrs
Total Fuel Time: 
321,096 lb
DATALINK LOG | Newest first | Current as of: 2020-11-27 14:55:52
LABEL SEQUENCE CONTENT Dn/Up
QD521519:31 8.1▼ Dn
QC461019:25▼ Dn
2U5707KPHX 191751Z 14005KT 10SM BKN250 29/M02 A2993 RMK AO2 SLP116 T02941017 10294 20189 58000▲ Up
2S5843KPHX▼ Dn
QB373113:36▼ Dn
QA242113:23 40.3▼ Dn
2U1007PHNL 191300Z 09005KT 10SM FEW022 25/21 A2985 RMK AO2 T02500211▲ Up
2S1108PHNL▼ Dn
A30310CLEARED TO KPHX VIA MKK4 FITES R578 FICKY JERKI BLH HYDRR1. SQUAWK 6611.▲ Up
B30300PHNL KPHX N737GG N737GG K ▼ Dn
5U0056KPHX 191658Z 10005KT 10SM BKN250 20/M01 A2990▲ Up
2U0051PHNL 191203Z 12004KT 10SM SCT022 BKN029 26/21 A2986 RMK AO2 T02610211▲ Up
5S0059KPHX▼ Dn
2S0059PHNL▼ Dn
Q05957[LINK ACK]▲ Up
Q05957[LINK TEST]▼ Dn


AIRCRAFT HISTORY
FLIGHT DATE FLIGHT NO. ORIGIN DESTINATION CLEARED ROUTE BLOCK TIME FLIGHT TIME FUEL USED PILOT
2020-11-21737GGPHOG KBUR PHOG HIAKA ROSAH ROSAH EBBER ELOYI ERROT ETNIC ETECO EDSEL EDTOO KL18E LOBER FIM TOAKS RW084.7 hrs4.4 hrs23,061 lbDan Downs
2020-11-177372KCRP PHOG KCRP CRP ICEMN SAT LEJON JCT KEMPL FST FIGMO ELP ALIBY OLIIN TUS ALMON GBN JUDTH MOHAK HOGGZ BZA HEEDS IPL GWIRE MZB ORDER BARMA MALIT ROSIN FICKY FOOTS FLITY FIZEL FOMAS FAPIS FITES FEKIK LNDHY MUNJU HOMAI HOMAI RW028.3 hrs8.1 hrs46,433 lbDan Downs
2020-11-177372TAPA KCRP TAPA ELOPO PJM GABUL SLUGO GUYRO SEKAR GHANN IKBIX SNAKR ALGAE CATFS CRP KCRP5.2 hrs5 hrs26,222 lbDan Downs
2020-11-177372TNCM TAPA TNCM MODOR ELOPO RW070.6 hrs0.4 hrs3,089 lbDan Downs
2020-11-157372CYYZ TNCM CYYZ SAVUR SEKIT RIKEM KEPTA BMPAH AEVON EXTOL MEMMS KODEY ARKKK JFK SHIPP SPDEY DOGRS BLUUU DUMPR ISLES SQUAD DARUX DASER GECAL 2824N06508W BRKZZ DUPAN QNEPA OPAUL YIYYO TRNKY ULUBA PJM AVAKI RW104.2 hrs3.9 hrs20,464 lbDan Downs
2020-11-042201KTPA CYYZ KTPA CAMJO HEPAR TEEEM BLAAN EMCET RYCKI LUNDD ILLSA EWESS RICCS OXMAN CYYZ2.7 hrs2.5 hrs13,555 lbRoberto Stopnicki
2020-10-31737GGSEQM KTPA SEQM QNV D339J NEGAL ENSOL TCO TOKUT MILAT TBG ARNAL EMASA GCM ATUVI UCL XOPLI IKBIX PEAKY RSW ROGAN BRDGE JSTRM PIE LAGOO RW01L4.4 hrs4 hrs21,218 lbGeorge M
2020-10-25-0413KPHX SEQM KPHX OLIIN CUU SILAC MTT URVOD TGZ KESLI GABEN OMISO KALPA AUR KAPAN OLISU CAT AMUVO ALTEG ARLEN ELENA ORADA LIB SAINO ORRAL PELDA PULGO PAPIN IRASO UMGOS QIT SEQM6.6 hrs6.3 hrs34,013 lbCharles Harris
2020-10-19PHNL KPHX PHNL MKK BLUSH SETWE FITES FAPIS FOMAS FIZEL FLITY FOOTS FICKY JERKI BLH SCOLE SPINK SNRRA SWOON HYDRR GEELA PUNNT TEICH TESLE FALGO CAGOR JAMIL RW086.1 hrs5.8 hrs32,249 lbGeorge M
2020-10-18KORD PHNL 9.2 hrs8.9 hrs51,007 lbGeorge M
2020-10-18KBDL KORD KBDL CTR CAM PAYGE PUPPY GONZZ HOZIR CFVXC DUVEP DERLO KITOK TANKO CFSMW FNT EMMMA LTOUR VIO DITCA WLTER RHIVR PAITN WYNDE FIYER ERNNY PAPPI TUBEZ VULCN KURKK BAMBB HAZIL RW28C2.2 hrs2 hrs12,393 lbGeorge M
2020-10-17-17EBBR KBDL EBBR D278J DENUT LUMEN BULAM DIBLI RAPIX SUNUP TEBRA KOPUL IDITU IPKUS CPT KENET GAVGO DEZZU DIKAS EVRIN DINIM 5120N 5030N 4940N 4750N PORTI BGR CAM CANAN SHIGY STELA MOLDS TOMES HADUX RW337.6 hrs7.2 hrs37,393 lbDan Downs